createdAt,value
2023-05-09T00:02:08.210Z,55.60
2023-05-09T00:04:37.480Z,63.97
2023-05-09T00:07:05.957Z,62.05
2023-05-09T00:09:33.802Z,61.67
2023-05-09T00:12:02.703Z,63.92
2023-05-09T00:14:30.583Z,63.10
2023-05-09T00:16:59.341Z,63.30
2023-05-09T00:19:27.392Z,62.65
2023-05-09T00:21:56.784Z,59.80
2023-05-09T00:24:24.676Z,61.45
2023-05-09T00:26:52.950Z,60.50
2023-05-09T00:29:20.863Z,62.78
2023-05-09T00:31:48.862Z,68.18
2023-05-09T00:34:16.985Z,67.00
2023-05-09T00:36:44.849Z,63.97
2023-05-09T00:39:14.310Z,60.33
2023-05-09T00:41:42.485Z,55.38
2023-05-09T00:44:10.237Z,59.38
2023-05-09T00:46:38.188Z,62.35
2023-05-09T00:49:06.292Z,55.78
2023-05-09T00:51:34.378Z,63.33
2023-05-09T00:54:02.306Z,63.85
2023-05-09T00:56:34.842Z,57.70
2023-05-09T00:59:02.932Z,64.30
2023-05-09T01:01:30.910Z,58.42
2023-05-09T01:03:59.388Z,63.30
2023-05-09T01:06:33.077Z,60.35
2023-05-09T01:09:04.926Z,67.95
2023-05-09T01:11:39.982Z,62.63
2023-05-09T01:14:14.987Z,67.72
2023-05-09T01:16:48.768Z,68.43
2023-05-09T01:19:41.053Z,70.47
2023-05-09T01:22:10.415Z,66.63
2023-05-09T01:25:00.491Z,70.82
2023-05-09T01:27:44.673Z,67.05
2023-05-09T01:30:14.669Z,71.20
2023-05-09T01:32:44.789Z,68.63
2023-05-09T01:35:14.882Z,66.80
2023-05-09T01:37:44.485Z,70.35
2023-05-09T01:40:16.781Z,71.70
2023-05-09T01:42:45.999Z,70.30
2023-05-09T01:45:17.629Z,70.55
2023-05-09T01:47:46.286Z,71.90
2023-05-09T01:50:14.632Z,66.43
2023-05-09T01:52:46.178Z,72.55
2023-05-09T01:55:14.824Z,73.45
2023-05-09T01:57:43.353Z,76.22
2023-05-09T02:00:13.868Z,72.07
2023-05-09T02:02:44.546Z,71.72
2023-05-09T02:05:13.469Z,73.47
2023-05-09T02:07:42.366Z,74.30
2023-05-09T02:10:11.683Z,77.15
2023-05-09T02:12:39.715Z,69.70
2023-05-09T02:15:09.450Z,79.57
2023-05-09T02:17:42.357Z,80.38
2023-05-09T02:20:13.511Z,81.07
2023-05-09T02:22:42.614Z,86.40
2023-05-09T02:25:14.384Z,86.03
2023-05-09T02:27:44.305Z,81.03
2023-05-09T02:30:16.239Z,84.10
2023-05-09T02:32:45.604Z,83.28
2023-05-09T02:35:16.591Z,83.55
2023-05-09T02:37:45.344Z,86.60
2023-05-09T02:40:13.892Z,85.85
2023-05-09T02:42:41.950Z,88.45
2023-05-09T02:45:11.853Z,78.50
2023-05-09T02:47:40.077Z,79.38
2023-05-09T02:50:09.192Z,81.35
2023-05-09T02:52:41.062Z,86.03
2023-05-09T02:55:10.194Z,78.50
2023-05-09T02:57:41.073Z,83.22
2023-05-09T03:00:10.492Z,81.85
2023-05-09T03:02:39.144Z,75.88
2023-05-09T03:05:11.002Z,74.53
2023-05-09T03:07:40.326Z,74.35
2023-05-09T03:10:11.462Z,73.35
2023-05-09T03:12:39.741Z,66.70
2023-05-09T03:15:08.947Z,69.03
2023-05-09T03:17:42.233Z,67.03
2023-05-09T03:20:11.153Z,60.90
2023-05-09T03:22:40.640Z,58.60
2023-05-09T03:25:11.143Z,57.67
2023-05-09T03:27:40.008Z,51.40
2023-05-09T03:30:13.041Z,55.03
2023-05-09T03:32:42.772Z,48.85
2023-05-09T03:35:11.280Z,54.60
2023-05-09T03:37:40.632Z,45.65
2023-05-09T03:40:10.501Z,51.45
2023-05-09T03:42:46.541Z,49.30
2023-05-09T03:45:14.986Z,48.08
2023-05-09T03:47:44.035Z,45.95
2023-05-09T03:50:12.704Z,46.03
2023-05-09T03:52:42.309Z,45.22
2023-05-09T03:55:11.045Z,48.20
2023-05-09T03:57:39.520Z,50.13
2023-05-09T04:00:10.363Z,46.75
2023-05-09T04:02:56.161Z,49.78
2023-05-09T04:05:33.644Z,43.63
2023-05-09T04:08:11.058Z,51.00
2023-05-09T04:10:39.112Z,50.30
2023-05-09T04:13:07.346Z,47.05
2023-05-09T04:15:36.512Z,47.25
2023-05-09T04:18:05.266Z,51.75
2023-05-09T04:20:33.615Z,49.67
2023-05-09T04:23:03.544Z,50.38
2023-05-09T04:25:31.830Z,47.20
2023-05-09T04:27:59.955Z,49.60
2023-05-09T04:30:28.451Z,49.75
2023-05-09T04:32:57.005Z,47.17
2023-05-09T04:35:26.746Z,46.60
2023-05-09T04:37:55.266Z,50.03
2023-05-09T04:40:26.891Z,46.58
2023-05-09T04:42:59.810Z,41.55
2023-05-09T04:45:30.890Z,43.20
2023-05-09T04:48:00.830Z,47.15
2023-05-09T04:50:30.442Z,50.50
2023-05-09T04:52:59.740Z,46.78
2023-05-09T04:55:29.804Z,50.33
2023-05-09T04:57:58.493Z,48.53
2023-05-09T05:00:26.485Z,53.45
2023-05-09T05:02:54.469Z,46.75
2023-05-09T05:05:25.421Z,47.10
2023-05-09T05:07:56.799Z,43.55
2023-05-09T05:10:31.383Z,43.35
2023-05-09T05:13:07.719Z,42.00
2023-05-09T05:15:39.480Z,44.85
2023-05-09T05:18:08.810Z,44.53
2023-05-09T05:20:36.992Z,48.45
2023-05-09T05:23:05.062Z,40.75
2023-05-09T05:25:34.972Z,40.83
2023-05-09T05:28:03.623Z,38.90
2023-05-09T05:30:34.185Z,43.65
2023-05-09T05:33:04.007Z,41.83
2023-05-09T05:35:32.686Z,40.53
2023-05-09T05:38:03.718Z,39.33
2023-05-09T05:40:33.409Z,41.28
2023-05-09T05:43:05.911Z,37.83
2023-05-09T05:45:36.348Z,39.70
2023-05-09T05:48:07.207Z,42.28
2023-05-09T05:50:36.643Z,37.65
2023-05-09T05:53:04.996Z,36.92
2023-05-09T05:55:34.143Z,40.05
2023-05-09T05:58:02.109Z,42.78
2023-05-09T06:00:31.469Z,36.67
2023-05-09T06:03:04.883Z,36.63
2023-05-09T06:05:43.680Z,38.72
2023-05-09T06:08:12.462Z,35.03
2023-05-09T06:10:40.271Z,39.10
2023-05-09T06:13:08.235Z,37.50
2023-05-09T06:15:39.842Z,33.40
2023-05-09T06:18:09.048Z,36.00
2023-05-09T06:20:37.032Z,31.30
2023-05-09T06:23:04.853Z,34.53
2023-05-09T06:25:32.914Z,33.70
2023-05-09T06:28:00.766Z,32.15
2023-05-09T06:30:29.028Z,30.30
2023-05-09T06:33:00.152Z,29.08
2023-05-09T06:35:28.635Z,30.70
2023-05-09T06:37:56.605Z,29.63
2023-05-09T06:40:24.424Z,34.75
2023-05-09T06:42:52.394Z,29.75
2023-05-09T06:45:21.504Z,32.78
2023-05-09T06:47:49.747Z,26.83
2023-05-09T06:50:19.220Z,27.88
2023-05-09T06:52:47.164Z,28.77
2023-05-09T06:55:15.390Z,25.90
2023-05-09T06:57:43.525Z,29.23
2023-05-09T07:00:12.650Z,26.30
2023-05-09T07:02:42.250Z,22.00
2023-05-09T07:05:11.458Z,24.38
2023-05-09T07:07:42.069Z,21.92
2023-05-09T07:10:12.635Z,23.60
2023-05-09T07:12:41.729Z,21.25
2023-05-09T07:15:11.265Z,26.33
2023-05-09T07:17:39.567Z,22.50
2023-05-09T07:20:09.836Z,23.10
2023-05-09T07:22:38.040Z,20.70
2023-05-09T07:25:09.890Z,23.98
2023-05-09T07:27:39.828Z,24.15
2023-05-09T07:30:09.385Z,26.65
2023-05-09T07:32:37.859Z,30.25
2023-05-09T07:35:06.489Z,23.60
2023-05-09T07:37:34.884Z,24.75
2023-05-09T07:40:03.424Z,23.80
2023-05-09T07:42:33.372Z,21.85
2023-05-09T07:45:01.539Z,24.70
2023-05-09T07:47:29.443Z,27.15
2023-05-09T07:49:57.644Z,21.15
2023-05-09T07:52:25.542Z,21.23
2023-05-09T07:54:54.587Z,33.40
2023-05-09T07:57:22.766Z,24.75
2023-05-09T07:59:52.013Z,25.90
2023-05-09T08:02:20.093Z,21.95
2023-05-09T08:04:49.107Z,22.23
2023-05-09T08:07:16.995Z,20.23
2023-05-09T08:09:44.848Z,19.60
2023-05-09T08:12:12.924Z,22.30
2023-05-09T08:14:40.827Z,20.48
2023-05-09T08:17:10.050Z,19.80
2023-05-09T08:19:38.147Z,19.73
2023-05-09T08:22:06.096Z,18.75
2023-05-09T08:24:33.884Z,23.17
2023-05-09T08:27:02.010Z,18.23
2023-05-09T08:29:30.123Z,20.13
2023-05-09T08:31:58.110Z,19.02
2023-05-09T08:34:27.505Z,21.20
2023-05-09T08:36:55.730Z,17.50
2023-05-09T08:39:23.627Z,16.92
2023-05-09T08:41:51.783Z,16.90
2023-05-09T08:44:19.610Z,16.10
2023-05-09T08:46:48.987Z,16.48
2023-05-09T08:49:17.302Z,13.82
2023-05-09T08:51:47.269Z,20.88
2023-05-09T08:54:15.573Z,16.35
2023-05-09T08:56:43.671Z,13.52
2023-05-09T08:59:11.754Z,16.83
2023-05-09T09:01:39.989Z,10.88
2023-05-09T09:04:08.970Z,15.25
2023-05-09T09:06:37.667Z,11.65
2023-05-09T09:09:08.481Z,11.80
2023-05-09T09:11:37.515Z,22.55
2023-05-09T09:14:09.992Z,15.80
2023-05-09T09:16:38.083Z,10.95
2023-05-09T09:19:07.506Z,11.63
2023-05-09T09:21:35.445Z,12.40
2023-05-09T09:24:04.355Z,9.48
2023-05-09T09:26:33.639Z,10.20
2023-05-09T09:29:01.621Z,10.75
2023-05-09T09:31:33.214Z,10.57
2023-05-09T09:34:01.895Z,13.05
2023-05-09T09:36:30.669Z,11.05
2023-05-09T09:39:01.439Z,10.43
2023-05-09T09:41:34.650Z,14.32
2023-05-09T09:44:08.657Z,10.55
2023-05-09T09:46:47.266Z,11.55
2023-05-09T09:49:19.837Z,11.82
2023-05-09T09:51:51.353Z,10.23
2023-05-09T09:54:19.415Z,8.45
2023-05-09T09:56:49.696Z,8.98
2023-05-09T09:59:19.001Z,9.90
2023-05-09T10:01:57.682Z,7.20
2023-05-09T10:04:28.971Z,6.93
2023-05-09T10:06:58.023Z,9.30
2023-05-09T10:09:26.942Z,8.20
2023-05-09T10:11:57.273Z,10.23
2023-05-09T10:14:29.387Z,8.45
2023-05-09T10:16:57.863Z,10.38
2023-05-09T10:19:27.464Z,9.00
2023-05-09T10:21:57.115Z,7.53
2023-05-09T10:24:30.077Z,8.38
2023-05-09T10:27:05.512Z,8.45
2023-05-09T10:29:36.757Z,9.13
2023-05-09T10:32:11.525Z,8.93
2023-05-09T10:34:41.651Z,11.20
2023-05-09T10:37:09.971Z,10.25
2023-05-09T10:39:38.506Z,11.25
2023-05-09T10:42:08.516Z,9.38
2023-05-09T10:44:36.430Z,9.88
2023-05-09T10:47:04.840Z,9.52
2023-05-09T10:49:34.345Z,10.45
2023-05-09T10:52:04.439Z,8.25
2023-05-09T10:54:33.679Z,8.57
2023-05-09T10:57:01.866Z,9.15
2023-05-09T10:59:39.227Z,11.25
2023-05-09T11:02:07.640Z,11.15
2023-05-09T11:04:35.512Z,10.75
2023-05-09T11:07:03.635Z,8.75
2023-05-09T11:09:33.861Z,8.48
2023-05-09T11:12:09.441Z,7.38
2023-05-09T11:14:43.579Z,7.25
2023-05-09T11:20:00.448Z,6.78
2023-05-09T11:22:30.781Z,6.68
2023-05-09T11:25:05.862Z,8.25
2023-05-09T11:27:40.747Z,8.75
2023-05-09T11:30:11.818Z,6.25
2023-05-09T11:32:45.749Z,10.52
2023-05-09T11:35:15.831Z,11.10
2023-05-09T11:37:49.049Z,7.38
2023-05-09T11:40:18.428Z,6.35
2023-05-09T11:42:47.668Z,7.80
2023-05-09T11:45:17.963Z,6.97
2023-05-09T11:47:46.736Z,11.27
2023-05-09T11:50:15.931Z,8.68
2023-05-09T11:52:44.074Z,11.70
2023-05-09T11:55:13.356Z,5.80
2023-05-09T11:57:43.559Z,9.55
2023-05-09T12:00:12.777Z,7.85
2023-05-09T12:02:41.980Z,7.20
2023-05-09T12:05:10.955Z,8.60
2023-05-09T12:07:39.639Z,7.45
2023-05-09T12:10:09.782Z,9.38
2023-05-09T12:12:38.486Z,7.43
2023-05-09T12:15:09.285Z,9.98
2023-05-09T12:17:37.544Z,6.75
2023-05-09T12:20:08.252Z,10.25
2023-05-09T12:22:37.503Z,9.25
2023-05-09T12:25:07.819Z,9.50
2023-05-09T12:27:36.618Z,7.63
2023-05-09T12:30:08.708Z,9.07
2023-05-09T12:32:39.151Z,7.72
2023-05-09T12:35:11.881Z,7.90
2023-05-09T12:37:39.961Z,8.55
2023-05-09T12:40:13.124Z,6.32
2023-05-09T12:42:45.119Z,8.30
2023-05-09T12:45:13.410Z,7.25
2023-05-09T12:47:42.035Z,8.18
2023-05-09T12:50:12.726Z,7.43
2023-05-09T12:52:54.612Z,8.05
2023-05-09T12:55:27.009Z,6.72
2023-05-09T12:58:04.580Z,7.10
2023-05-09T13:00:43.824Z,6.00
2023-05-09T13:03:22.371Z,9.82
2023-05-09T13:05:58.863Z,5.25
2023-05-09T13:08:27.160Z,5.20
2023-05-09T13:11:03.896Z,5.65
2023-05-09T13:13:36.149Z,7.68
2023-05-09T13:16:06.926Z,6.45
2023-05-09T13:18:36.223Z,5.63
2023-05-09T13:21:05.545Z,6.60
2023-05-09T13:23:33.296Z,6.43
2023-05-09T13:26:01.176Z,8.77
2023-05-09T13:28:29.160Z,5.75
2023-05-09T13:30:57.158Z,5.38
2023-05-09T13:33:26.621Z,7.78
2023-05-09T13:35:54.972Z,5.88
2023-05-09T13:38:24.229Z,5.43
2023-05-09T13:40:52.184Z,6.95
2023-05-09T13:43:19.986Z,4.47
2023-05-09T13:45:47.806Z,4.88
2023-05-09T13:48:15.625Z,6.15
2023-05-09T13:50:43.404Z,5.22
2023-05-09T13:53:11.300Z,4.63
2023-05-09T13:55:40.419Z,4.57
2023-05-09T13:58:08.258Z,4.10
2023-05-09T14:00:37.087Z,6.55
2023-05-09T14:03:05.191Z,5.40
2023-05-09T14:05:33.143Z,6.18
2023-05-09T14:08:02.002Z,7.65
2023-05-09T14:10:30.137Z,4.88
2023-05-09T14:12:59.604Z,6.43
2023-05-09T14:15:27.420Z,5.13
2023-05-09T14:17:55.629Z,6.13
2023-05-09T14:20:23.812Z,5.10
2023-05-09T14:22:51.828Z,8.70
2023-05-09T14:25:20.224Z,5.78
2023-05-09T14:27:48.143Z,5.75
2023-05-09T14:30:17.730Z,7.05
2023-05-09T14:32:45.843Z,8.27
2023-05-09T14:35:13.746Z,5.88
2023-05-09T14:37:41.939Z,7.97
2023-05-09T14:40:10.932Z,6.20
2023-05-09T14:42:39.091Z,6.15
2023-05-09T14:45:10.808Z,14.90
2023-05-09T14:47:41.347Z,21.92
2023-05-09T14:50:11.555Z,14.07
2023-05-09T14:52:39.738Z,26.92
2023-05-09T14:55:08.628Z,18.27
2023-05-09T14:57:36.838Z,13.90
2023-05-09T15:00:19.455Z,18.38
2023-05-09T15:02:49.590Z,10.75
2023-05-09T15:05:17.971Z,11.43
2023-05-09T15:07:45.799Z,8.35
2023-05-09T15:10:13.704Z,7.00
2023-05-09T15:12:41.852Z,6.97
2023-05-09T15:15:17.277Z,6.05
2023-05-09T15:17:45.491Z,6.88
2023-05-09T15:20:16.300Z,7.28
2023-05-09T15:22:44.983Z,5.72
2023-05-09T15:25:12.916Z,8.00
2023-05-09T15:27:40.746Z,8.68
2023-05-09T15:30:10.032Z,6.57
2023-05-09T15:32:41.019Z,6.00
2023-05-09T15:35:10.015Z,6.25
2023-05-09T15:37:39.258Z,6.20
2023-05-09T15:40:09.294Z,7.90
2023-05-09T15:42:37.308Z,6.03
2023-05-09T15:45:05.899Z,7.22
2023-05-09T15:47:33.929Z,7.43
2023-05-09T15:50:01.866Z,6.50
2023-05-09T15:52:29.992Z,7.40
2023-05-09T15:54:59.711Z,9.70
2023-05-09T15:57:29.567Z,8.40
2023-05-09T15:59:57.521Z,5.88
2023-05-09T16:02:25.417Z,5.15
2023-05-09T16:04:53.524Z,8.13
2023-05-09T16:07:22.027Z,5.32
2023-05-09T16:09:50.155Z,6.68
2023-05-09T16:12:19.526Z,8.25
2023-05-09T16:14:47.658Z,5.82
2023-05-09T16:17:15.978Z,7.45
2023-05-09T16:19:43.825Z,5.20
2023-05-09T16:22:12.361Z,6.20
2023-05-09T16:24:40.876Z,8.90
2023-05-09T16:27:08.716Z,7.65
2023-05-09T16:29:38.060Z,6.25
2023-05-09T16:32:06.587Z,5.85
2023-05-09T16:34:35.509Z,6.03
2023-05-09T16:37:03.822Z,5.43
2023-05-09T16:39:32.473Z,7.93
2023-05-09T16:42:00.467Z,5.75
2023-05-09T16:44:28.551Z,4.90
2023-05-09T16:46:57.940Z,7.28
2023-05-09T16:49:25.966Z,9.00
2023-05-09T16:51:54.033Z,6.90
2023-05-09T16:54:23.231Z,5.82
2023-05-09T16:56:51.569Z,5.72
2023-05-09T16:59:20.136Z,5.60
2023-05-09T17:01:48.649Z,6.00
2023-05-09T17:04:18.058Z,5.70
2023-05-09T17:06:45.866Z,8.30
2023-05-09T17:09:13.797Z,7.82
2023-05-09T17:11:41.853Z,6.63
2023-05-09T17:14:09.600Z,7.05
2023-05-09T17:16:38.224Z,6.00
2023-05-09T17:19:06.397Z,7.35
2023-05-09T17:21:35.738Z,9.85
2023-05-09T17:24:03.764Z,5.88
2023-05-09T17:26:31.824Z,5.70
2023-05-09T17:28:59.793Z,6.10
2023-05-09T17:31:27.677Z,5.50
2023-05-09T17:33:55.641Z,4.93
2023-05-09T17:36:23.769Z,5.05
2023-05-09T17:38:53.126Z,4.57
2023-05-09T17:41:20.926Z,4.22
2023-05-09T17:43:51.223Z,4.78
2023-05-09T17:46:19.000Z,4.90
2023-05-09T17:48:47.823Z,5.00
2023-05-09T17:51:16.959Z,5.18
2023-05-09T17:53:44.903Z,5.07
2023-05-09T17:56:14.112Z,5.25
2023-05-09T17:58:42.125Z,5.43
2023-05-09T18:01:10.021Z,4.95
2023-05-09T18:03:37.999Z,5.97
2023-05-09T18:06:05.989Z,5.43
2023-05-09T18:08:33.900Z,5.32
2023-05-09T18:11:01.758Z,4.95
2023-05-09T18:13:31.634Z,5.65
2023-05-09T18:16:00.742Z,5.97
2023-05-09T18:18:29.385Z,7.60
2023-05-09T18:20:57.320Z,7.60
2023-05-09T18:23:26.163Z,5.55
2023-05-09T18:25:54.928Z,5.95
2023-05-09T18:28:25.394Z,6.07
2023-05-09T18:30:55.471Z,6.35
2023-05-09T18:33:23.747Z,6.72
2023-05-09T18:35:51.732Z,6.30
2023-05-09T18:38:19.742Z,6.00
2023-05-09T18:40:48.255Z,6.60
2023-05-09T18:43:16.957Z,8.80
2023-05-09T18:45:48.158Z,6.45
2023-05-09T18:48:17.680Z,7.18
2023-05-09T18:50:45.991Z,8.85
2023-05-09T18:53:14.169Z,9.85
2023-05-09T18:55:42.817Z,6.53
2023-05-09T18:58:11.024Z,8.73
2023-05-09T19:00:39.531Z,7.43
2023-05-09T19:03:07.806Z,8.00
2023-05-09T19:05:37.214Z,7.18
2023-05-09T19:08:05.762Z,7.95
2023-05-09T19:10:34.333Z,8.07
2023-05-09T19:13:02.425Z,8.77
2023-05-09T19:15:30.380Z,8.00
2023-05-09T19:17:58.785Z,7.50
2023-05-09T19:20:26.721Z,8.52
2023-05-09T19:22:55.948Z,8.93
2023-05-09T19:25:24.080Z,29.73
2023-05-09T19:27:52.694Z,26.50
2023-05-09T19:30:21.479Z,18.88
2023-05-09T19:32:49.361Z,13.27
2023-05-09T19:35:17.500Z,10.63
2023-05-09T19:37:45.455Z,9.82
2023-05-09T19:40:15.230Z,10.82
2023-05-09T19:42:43.453Z,10.18
2023-05-09T19:45:12.173Z,9.48
2023-05-09T19:47:40.403Z,9.95
2023-05-09T19:50:09.268Z,9.75
2023-05-09T19:52:37.496Z,9.30
2023-05-09T19:55:07.237Z,10.63
2023-05-09T19:57:36.714Z,10.77
2023-05-09T20:04:59.667Z,10.90
2023-05-09T20:07:42.094Z,11.98
2023-05-09T20:10:12.816Z,12.38
2023-05-09T20:12:42.520Z,13.02
2023-05-09T20:15:11.857Z,12.45
2023-05-09T20:17:40.255Z,12.75
2023-05-09T20:20:10.130Z,13.30
2023-05-09T20:22:38.372Z,13.23
2023-05-09T20:25:07.113Z,12.75
2023-05-09T20:27:37.257Z,13.57
2023-05-09T20:30:08.766Z,13.68
2023-05-09T20:32:37.109Z,14.43
2023-05-09T20:35:06.371Z,13.38
2023-05-09T20:37:34.556Z,14.02
2023-05-09T20:40:02.607Z,16.48
2023-05-09T20:42:30.861Z,14.38
2023-05-09T20:44:59.278Z,16.67
2023-05-09T20:47:28.973Z,13.90
2023-05-09T20:49:58.287Z,13.02
2023-05-09T20:52:27.081Z,14.45
2023-05-09T20:54:55.033Z,14.35
2023-05-09T20:57:25.724Z,14.95
2023-05-09T20:59:56.669Z,11.30
2023-05-09T21:02:25.349Z,11.77
2023-05-09T21:04:54.938Z,13.80
2023-05-09T21:07:24.661Z,10.63
2023-05-09T21:09:54.091Z,10.70
2023-05-09T21:12:22.384Z,10.90
2023-05-09T21:14:51.144Z,15.07
2023-05-09T21:17:19.502Z,10.63
2023-05-09T21:19:51.613Z,11.15
2023-05-09T21:22:21.358Z,16.35
2023-05-09T21:24:50.783Z,11.57
2023-05-09T21:27:18.951Z,10.07
2023-05-09T21:29:49.252Z,10.00
2023-05-09T21:32:17.759Z,13.48
2023-05-09T21:34:46.154Z,12.23
2023-05-09T21:37:14.279Z,14.30
2023-05-09T21:39:48.929Z,16.35
2023-05-09T21:42:17.485Z,13.85
2023-05-09T21:44:45.890Z,13.43
2023-05-09T21:47:14.148Z,16.55
2023-05-09T21:49:42.361Z,14.15
2023-05-09T21:52:10.481Z,13.73
2023-05-09T21:54:38.733Z,14.77
2023-05-09T21:57:08.207Z,17.55
2023-05-09T21:59:36.295Z,14.98
2023-05-09T22:02:04.280Z,14.68
2023-05-09T22:04:32.146Z,16.10
2023-05-09T22:06:59.937Z,16.35
2023-05-09T22:09:28.068Z,15.65
2023-05-09T22:11:57.120Z,15.15
2023-05-09T22:14:26.384Z,17.05
2023-05-09T22:16:54.315Z,17.42
2023-05-09T22:19:22.272Z,17.25
2023-05-09T22:21:50.535Z,16.63
2023-05-09T22:24:18.383Z,20.83
2023-05-09T22:26:46.519Z,20.45
2023-05-09T22:29:16.477Z,21.13
2023-05-09T22:31:45.719Z,18.42
2023-05-09T22:34:13.558Z,20.50
2023-05-09T22:36:42.618Z,22.05
2023-05-09T22:39:11.108Z,22.23
2023-05-09T22:41:38.927Z,22.70
2023-05-09T22:44:06.928Z,22.95
2023-05-09T22:46:35.151Z,24.17
2023-05-09T22:49:05.508Z,22.25
2023-05-09T22:51:33.586Z,26.20
2023-05-09T22:54:01.502Z,23.00
2023-05-09T22:56:31.841Z,21.88
2023-05-09T22:58:59.938Z,23.35
2023-05-09T23:01:28.710Z,27.85
2023-05-09T23:03:56.650Z,25.85
2023-05-09T23:06:25.967Z,26.38
2023-05-09T23:08:53.923Z,24.90
2023-05-09T23:11:23.735Z,25.52
2023-05-09T23:13:52.239Z,29.63
2023-05-09T23:16:20.344Z,30.95
2023-05-09T23:18:48.455Z,29.73
2023-05-09T23:21:16.386Z,29.65
2023-05-09T23:23:45.715Z,34.65
2023-05-09T23:26:14.689Z,40.70
2023-05-09T23:28:42.681Z,39.35
2023-05-09T23:31:11.295Z,36.20
2023-05-09T23:33:39.681Z,39.85
2023-05-09T23:36:08.454Z,42.00
2023-05-09T23:38:36.412Z,43.58
2023-05-09T23:41:05.819Z,46.95
2023-05-09T23:43:34.417Z,45.80
2023-05-09T23:46:02.374Z,46.47
2023-05-09T23:48:30.366Z,49.30
2023-05-09T23:50:58.413Z,46.97
2023-05-09T23:53:26.250Z,47.65
2023-05-09T23:55:54.176Z,48.45
2023-05-09T23:58:23.461Z,44.72
